createdAt,value
2023-01-05T00:01:11.641Z,1.00
2023-01-05T00:03:39.097Z,1.00
2023-01-05T00:06:10.238Z,1.00
2023-01-05T00:08:38.065Z,99.90
2023-01-05T00:11:37.530Z,99.90
2023-01-05T00:14:24.032Z,99.90
2023-01-05T00:17:09.470Z,99.90
2023-01-05T00:19:55.336Z,99.90
2023-01-05T00:22:33.626Z,99.90
2023-01-05T00:25:03.408Z,99.90
2023-01-05T00:27:34.467Z,99.90
2023-01-05T00:30:01.770Z,99.90
2023-01-05T00:32:29.144Z,99.90
2023-01-05T00:34:57.925Z,99.90
2023-01-05T00:37:26.882Z,99.90
2023-01-05T00:39:53.764Z,99.90
2023-01-05T00:42:20.867Z,99.90
2023-01-05T00:44:47.673Z,99.90
2023-01-05T00:47:14.520Z,99.90
2023-01-05T00:49:41.543Z,99.90
2023-01-05T00:52:08.649Z,99.90
2023-01-05T00:54:35.653Z,99.90
2023-01-05T00:57:02.564Z,99.90
2023-01-05T00:59:29.395Z,99.90
2023-01-05T01:01:56.465Z,99.90
2023-01-05T01:04:23.494Z,99.90
2023-01-05T01:06:50.404Z,99.90
2023-01-05T01:09:17.252Z,99.90
2023-01-05T01:11:44.492Z,99.90
2023-01-05T01:14:12.608Z,99.90
2023-01-05T01:16:41.927Z,99.90
2023-01-05T01:19:14.026Z,99.90
2023-01-05T01:21:40.921Z,99.90
2023-01-05T01:24:08.301Z,99.90
2023-01-05T01:26:35.156Z,99.90
2023-01-05T01:29:01.968Z,99.90
2023-01-05T01:31:28.818Z,99.90
2023-01-05T01:33:55.627Z,99.90
2023-01-05T01:36:22.509Z,99.90
2023-01-05T01:38:49.355Z,99.90
2023-01-05T01:41:16.149Z,99.90
2023-01-05T01:43:47.174Z,99.90
2023-01-05T01:46:15.356Z,99.90
2023-01-05T01:49:08.906Z,99.90
2023-01-05T01:51:46.827Z,99.90
2023-01-05T01:54:17.966Z,99.90
2023-01-05T01:56:53.349Z,99.90
2023-01-05T01:59:20.578Z,99.90
2023-01-05T02:01:51.389Z,99.90
2023-01-05T02:04:19.752Z,99.90
2023-01-05T02:06:46.789Z,99.90
2023-01-05T02:09:13.702Z,99.90
2023-01-05T02:11:45.733Z,99.90
2023-01-05T02:14:47.888Z,99.90
2023-01-05T02:17:49.382Z,99.90
2023-01-05T02:20:25.680Z,99.90
2023-01-05T02:22:58.217Z,99.90
2023-01-05T02:25:48.097Z,99.90
2023-01-05T02:28:21.206Z,99.90
2023-01-05T02:30:50.762Z,99.90
2023-01-05T02:33:55.638Z,99.90
2023-01-05T02:36:55.154Z,99.90
2023-01-05T02:39:38.053Z,99.90
2023-01-05T02:42:12.331Z,99.90
2023-01-05T02:44:39.241Z,99.90
2023-01-05T02:47:28.036Z,99.90
2023-01-05T02:49:59.588Z,99.90
2023-01-05T02:52:27.744Z,99.90
2023-01-05T02:55:00.912Z,99.90
2023-01-05T02:57:47.090Z,99.90
2023-01-05T03:00:20.212Z,99.90
2023-01-05T03:02:51.133Z,99.90
2023-01-05T03:05:42.789Z,99.90
2023-01-05T03:08:25.057Z,99.90
2023-01-05T03:11:23.384Z,99.90
2023-01-05T03:13:59.379Z,99.90
2023-01-05T03:16:30.905Z,99.90
2023-01-05T03:19:18.299Z,99.90
2023-01-05T03:22:04.925Z,99.90
2023-01-05T03:24:50.493Z,99.90
2023-01-05T03:27:37.382Z,99.90
2023-01-05T03:30:22.825Z,99.90
2023-01-05T03:33:11.247Z,99.90
2023-01-05T03:35:43.436Z,99.90
2023-01-05T03:38:21.329Z,99.90
2023-01-05T03:40:53.449Z,99.90
2023-01-05T03:43:21.183Z,99.90
2023-01-05T03:45:54.487Z,99.90
2023-01-05T03:48:22.604Z,99.90
2023-01-05T03:50:49.871Z,99.90
2023-01-05T03:53:16.812Z,99.90
2023-01-05T03:55:43.603Z,99.90
2023-01-05T03:58:10.495Z,99.90
2023-01-05T04:00:37.378Z,99.90
2023-01-05T04:03:04.925Z,99.90
2023-01-05T04:05:31.840Z,99.90
2023-01-05T04:07:58.762Z,99.90
2023-01-05T04:10:25.619Z,99.90
2023-01-05T04:12:52.475Z,99.90
2023-01-05T04:15:19.385Z,99.90
2023-01-05T04:17:46.229Z,99.90
2023-01-05T04:20:13.339Z,99.90
2023-01-05T04:22:40.184Z,99.90
2023-01-05T04:25:07.872Z,99.90
2023-01-05T04:27:34.782Z,99.90
2023-01-05T04:30:01.605Z,99.90
2023-01-05T04:32:28.446Z,99.90
2023-01-05T04:34:55.293Z,99.90
2023-01-05T04:37:22.219Z,99.90
2023-01-05T04:39:49.024Z,99.90
2023-01-05T04:42:16.406Z,99.90
2023-01-05T04:44:43.239Z,99.90
2023-01-05T04:47:10.077Z,99.90
2023-01-05T04:49:36.894Z,99.90
2023-01-05T04:52:03.797Z,99.90
2023-01-05T04:54:30.727Z,99.90
2023-01-05T04:56:57.532Z,99.90
2023-01-05T04:59:24.321Z,99.90
2023-01-05T05:01:51.268Z,99.90
2023-01-05T05:04:18.171Z,99.90
2023-01-05T05:06:45.003Z,99.90
2023-01-05T05:09:11.909Z,99.90
2023-01-05T05:11:38.856Z,99.90
2023-01-05T05:14:05.653Z,99.90
2023-01-05T05:16:32.483Z,99.90
2023-01-05T05:18:59.606Z,99.90
2023-01-05T05:21:26.399Z,99.90
2023-01-05T05:23:53.199Z,99.90
2023-01-05T05:26:20.065Z,99.90
2023-01-05T05:28:46.855Z,99.90
2023-01-05T05:31:13.703Z,99.90
2023-01-05T05:33:41.376Z,99.90
2023-01-05T05:36:08.721Z,99.90
2023-01-05T05:38:35.619Z,99.90
2023-01-05T05:41:02.416Z,99.90
2023-01-05T05:43:29.225Z,99.90
2023-01-05T05:45:56.094Z,99.90
2023-01-05T05:48:23.018Z,99.90
2023-01-05T05:50:49.818Z,99.90
2023-01-05T05:53:16.725Z,99.90
2023-01-05T05:55:43.713Z,99.90
2023-01-05T05:58:10.591Z,99.90
2023-01-05T06:00:37.470Z,99.90
2023-01-05T06:03:04.582Z,99.90
2023-01-05T06:05:31.427Z,99.90
2023-01-05T06:07:58.278Z,99.90
2023-01-05T06:10:25.207Z,99.90
2023-01-05T06:12:55.770Z,99.90
2023-01-05T06:15:23.347Z,99.90
2023-01-05T06:17:50.522Z,99.90
2023-01-05T06:20:17.638Z,99.90
2023-01-05T06:22:44.547Z,99.90
2023-01-05T06:25:11.437Z,99.90
2023-01-05T06:27:38.212Z,99.90
2023-01-05T06:30:05.519Z,99.90
2023-01-05T06:32:32.352Z,99.90
2023-01-05T06:34:59.197Z,99.90
2023-01-05T06:37:25.974Z,99.90
2023-01-05T06:39:54.638Z,99.90
2023-01-05T06:42:23.566Z,99.90
2023-01-05T06:44:50.840Z,99.90
2023-01-05T06:47:18.139Z,99.90
2023-01-05T06:49:44.987Z,99.90
2023-01-05T06:52:16.500Z,99.90
2023-01-05T06:54:44.128Z,99.90
2023-01-05T06:57:11.547Z,99.90
2023-01-05T06:59:38.775Z,99.90
2023-01-05T07:02:06.136Z,99.90
2023-01-05T07:04:33.099Z,99.90
2023-01-05T07:06:59.908Z,99.90
2023-01-05T07:09:26.704Z,99.90
2023-01-05T07:11:53.475Z,99.90
2023-01-05T07:14:20.305Z,99.90
2023-01-05T07:16:47.104Z,99.90
2023-01-05T07:19:14.091Z,99.90
2023-01-05T07:21:40.908Z,99.90
2023-01-05T07:24:07.969Z,99.90
2023-01-05T07:26:34.763Z,99.90
2023-01-05T07:29:01.535Z,94.90
2023-01-05T07:31:28.484Z,94.80
2023-01-05T07:33:55.360Z,93.60
2023-01-05T07:36:22.276Z,96.50
2023-01-05T07:38:49.039Z,99.90
2023-01-05T07:41:15.961Z,99.90
2023-01-05T07:43:42.816Z,99.90
2023-01-05T07:46:10.002Z,99.90
2023-01-05T07:48:36.895Z,99.90
2023-01-05T07:51:05.220Z,99.90
2023-01-05T07:53:38.143Z,99.90
2023-01-05T07:56:10.577Z,99.90
2023-01-05T07:58:37.525Z,99.90
2023-01-05T08:01:11.082Z,99.90
2023-01-05T08:03:38.251Z,99.90
2023-01-05T08:06:07.903Z,99.90
2023-01-05T08:08:34.987Z,99.90
2023-01-05T08:11:07.856Z,99.90
2023-01-05T08:13:54.163Z,99.90
2023-01-05T08:16:21.529Z,99.90
2023-01-05T08:18:48.506Z,99.90
2023-01-05T08:21:15.345Z,99.90
2023-01-05T08:23:42.156Z,99.90
2023-01-05T08:26:17.246Z,99.90
2023-01-05T08:28:44.880Z,99.90
2023-01-05T08:31:17.916Z,93.40
2023-01-05T08:33:45.489Z,90.30
2023-01-05T08:36:15.733Z,76.00
2023-01-05T08:38:48.999Z,66.40
2023-01-05T08:41:21.371Z,66.40
2023-01-05T08:43:53.113Z,75.40
2023-01-05T08:46:21.706Z,74.00
2023-01-05T08:48:49.945Z,75.20
2023-01-05T08:51:17.318Z,75.40
2023-01-05T08:53:44.703Z,75.60
2023-01-05T08:56:11.798Z,75.50
2023-01-05T08:58:39.259Z,69.90
2023-01-05T09:01:08.299Z,75.40
2023-01-05T09:03:35.759Z,75.50
2023-01-05T09:06:03.493Z,72.50
2023-01-05T09:08:32.178Z,83.10
2023-01-05T09:11:13.459Z,63.70
2023-01-05T09:13:42.075Z,67.50
2023-01-05T09:16:14.221Z,75.70
2023-01-05T09:18:42.239Z,66.30
2023-01-05T09:21:10.240Z,73.60
2023-01-05T09:23:38.319Z,75.80
2023-01-05T09:26:07.928Z,75.90
2023-01-05T09:28:36.468Z,66.50
2023-01-05T09:31:22.950Z,75.80
2023-01-05T09:33:49.818Z,75.70
2023-01-05T09:36:19.164Z,75.90
2023-01-05T09:38:51.023Z,75.90
2023-01-05T09:41:23.857Z,85.30
2023-01-05T09:43:56.232Z,91.20
2023-01-05T09:46:36.996Z,83.40
2023-01-05T09:49:06.826Z,88.20
2023-01-05T09:51:34.294Z,90.40
2023-01-05T09:54:02.186Z,85.70
2023-01-05T09:57:07.999Z,90.40
2023-01-05T09:59:36.165Z,93.50
2023-01-05T10:02:18.670Z,92.50
2023-01-05T10:04:46.833Z,93.70
2023-01-05T10:07:26.257Z,85.40
2023-01-05T10:09:55.322Z,85.20
2023-01-05T10:12:49.261Z,85.50
2023-01-05T10:15:21.628Z,92.90
2023-01-05T10:17:48.838Z,92.00
2023-01-05T10:20:30.475Z,90.70
2023-01-05T10:23:00.323Z,85.70
2023-01-05T10:25:42.503Z,85.90
2023-01-05T10:28:38.568Z,81.10
2023-01-05T10:31:44.409Z,80.70
2023-01-05T10:34:21.479Z,91.70
2023-01-05T10:37:09.276Z,85.40
2023-01-05T10:39:52.533Z,85.80
2023-01-05T10:43:01.376Z,77.00
2023-01-05T10:45:30.728Z,80.90
2023-01-05T10:47:59.476Z,76.60
2023-01-05T10:50:41.125Z,76.40
2023-01-05T10:53:24.181Z,82.30
2023-01-05T10:55:57.090Z,92.60
2023-01-05T10:58:29.369Z,84.10
2023-01-05T11:01:00.383Z,76.80
2023-01-05T11:04:26.543Z,67.10
2023-01-05T11:06:32.994Z,56.50
2023-01-05T11:09:20.293Z,47.50
2023-01-05T11:12:17.404Z,51.10
2023-01-05T11:14:52.111Z,37.90
2023-01-05T11:17:26.436Z,32.90
2023-01-05T11:19:55.846Z,26.20
2023-01-05T11:22:30.863Z,30.00
2023-01-05T11:25:21.980Z,27.90
2023-01-05T11:28:17.578Z,20.00
2023-01-05T11:31:00.913Z,20.00
2023-01-05T11:33:30.125Z,20.00
2023-01-05T11:35:58.508Z,20.00
2023-01-05T11:38:30.648Z,20.00
2023-01-05T11:40:58.886Z,19.90
2023-01-05T11:43:29.250Z,20.00
2023-01-05T11:46:03.451Z,13.00
2023-01-05T11:48:34.341Z,19.00
2023-01-05T11:51:02.665Z,4.40
2023-01-05T11:53:37.374Z,12.00
2023-01-05T11:56:06.109Z,20.10
2023-01-05T11:58:44.478Z,19.90
2023-01-05T12:01:46.332Z,20.00
2023-01-05T12:04:22.352Z,19.60
2023-01-05T12:07:02.131Z,12.50
2023-01-05T12:09:34.627Z,19.90
2023-01-05T12:12:11.894Z,20.00
2023-01-05T12:15:02.576Z,20.10
2023-01-05T12:17:38.365Z,19.90
2023-01-05T12:20:48.198Z,16.00
2023-01-05T12:23:30.407Z,19.90
2023-01-05T12:26:18.898Z,20.00
2023-01-05T12:30:24.622Z,19.90
2023-01-05T12:35:19.545Z,26.50
2023-01-05T12:38:03.294Z,31.10
2023-01-05T12:41:03.815Z,27.70
2023-01-05T12:44:14.107Z,19.90
2023-01-05T12:46:47.159Z,29.00
2023-01-05T12:49:25.712Z,19.80
2023-01-05T12:52:01.096Z,19.90
2023-01-05T12:55:07.458Z,19.90
2023-01-05T12:57:41.243Z,19.80
2023-01-05T13:00:15.182Z,19.80
2023-01-05T13:03:02.917Z,19.80
2023-01-05T13:05:32.845Z,21.70
2023-01-05T13:08:40.422Z,19.80
2023-01-05T13:11:17.940Z,19.80
2023-01-05T13:13:49.648Z,23.60
2023-01-05T13:16:22.780Z,19.80
2023-01-05T13:18:55.804Z,19.80
2023-01-05T13:21:25.793Z,19.80
2023-01-05T13:23:57.388Z,19.90
2023-01-05T13:26:24.190Z,19.90
2023-01-05T13:28:57.894Z,19.90
2023-01-05T13:31:42.755Z,12.10
2023-01-05T13:34:38.041Z,5.60
2023-01-05T13:37:30.154Z,3.70
2023-01-05T13:40:02.672Z,12.00
2023-01-05T13:45:54.794Z,10.30
2023-01-05T13:48:44.859Z,19.70
2023-01-05T13:51:39.465Z,24.10
2023-01-05T13:54:13.698Z,24.60
2023-01-05T13:56:41.111Z,37.90
2023-01-05T13:59:34.675Z,37.90
2023-01-05T14:02:04.734Z,40.00
2023-01-05T14:04:34.066Z,50.80
2023-01-05T14:07:05.353Z,61.40
2023-01-05T14:09:35.345Z,65.90
2023-01-05T14:12:08.370Z,66.10
2023-01-05T14:14:58.876Z,76.10
2023-01-05T14:17:52.810Z,76.00
2023-01-05T14:20:40.817Z,76.80
2023-01-05T14:23:23.127Z,85.60
2023-01-05T14:25:58.186Z,48.60
2023-01-05T14:28:31.097Z,44.50
2023-01-05T14:31:17.132Z,47.10
2023-01-05T14:33:57.475Z,57.80
2023-01-05T14:36:43.086Z,58.40
2023-01-05T14:39:18.949Z,59.90
2023-01-05T14:42:00.428Z,60.90
2023-01-05T14:44:42.411Z,70.10
2023-01-05T14:47:10.894Z,76.90
2023-01-05T14:50:03.767Z,91.10
2023-01-05T14:52:55.606Z,90.20
2023-01-05T14:55:38.837Z,92.20
2023-01-05T14:58:15.495Z,99.90
2023-01-05T15:00:58.399Z,99.90
2023-01-05T15:03:31.891Z,99.90
2023-01-05T15:06:24.283Z,99.90
2023-01-05T15:09:31.874Z,99.90
2023-01-05T15:12:23.583Z,99.90
2023-01-05T15:15:14.897Z,99.90
2023-01-05T15:18:03.402Z,99.90
2023-01-05T15:21:09.620Z,99.90
2023-01-05T15:23:58.417Z,99.90
2023-01-05T15:26:31.038Z,99.90
2023-01-05T15:29:34.951Z,99.90
2023-01-05T15:32:23.431Z,99.90
2023-01-05T15:35:21.349Z,99.90
2023-01-05T15:37:48.816Z,99.90
2023-01-05T15:40:15.870Z,99.90
2023-01-05T15:42:45.015Z,99.90
2023-01-05T15:45:34.060Z,99.90
2023-01-05T15:48:11.189Z,99.90
2023-01-05T15:50:47.420Z,99.90
2023-01-05T15:53:26.322Z,99.90
2023-01-05T15:55:53.498Z,99.90
2023-01-05T15:58:22.242Z,99.90
2023-01-05T16:01:07.627Z,99.90
2023-01-05T16:03:36.444Z,99.90
2023-01-05T16:06:06.256Z,99.90
2023-01-05T16:08:39.289Z,99.90
2023-01-05T16:11:09.558Z,99.90
2023-01-05T16:14:06.484Z,99.90
2023-01-05T16:16:55.738Z,99.90
2023-01-05T16:19:32.706Z,99.90
2023-01-05T16:22:18.728Z,99.90
2023-01-05T16:25:04.318Z,99.90
2023-01-05T16:27:36.936Z,99.90
2023-01-05T16:30:31.704Z,99.90
2023-01-05T16:33:03.625Z,99.90
2023-01-05T16:35:44.772Z,99.90
2023-01-05T16:38:11.556Z,99.90
2023-01-05T16:40:55.703Z,99.90
2023-01-05T16:43:32.578Z,99.90
2023-01-05T16:46:20.131Z,99.90
2023-01-05T16:49:22.212Z,99.90
2023-01-05T16:51:49.089Z,99.90
2023-01-05T16:54:26.291Z,99.90
2023-01-05T16:56:59.244Z,99.90
2023-01-05T16:59:52.529Z,99.90
2023-01-05T17:02:47.826Z,99.90
2023-01-05T17:05:17.914Z,99.90
2023-01-05T17:07:46.974Z,99.90
2023-01-05T17:10:23.542Z,99.90
2023-01-05T17:12:58.603Z,99.90
2023-01-05T17:15:28.052Z,99.90
2023-01-05T17:17:56.376Z,99.90
2023-01-05T17:20:26.434Z,99.90
2023-01-05T17:22:54.821Z,99.90
2023-01-05T17:25:22.159Z,99.90
2023-01-05T17:27:48.986Z,99.90
2023-01-05T17:30:20.081Z,99.90
2023-01-05T17:32:47.144Z,99.90
2023-01-05T17:35:16.067Z,99.90
2023-01-05T17:37:45.504Z,99.90
2023-01-05T17:40:18.208Z,99.90
2023-01-05T17:42:45.544Z,99.90
2023-01-05T17:45:18.661Z,99.90
2023-01-05T17:47:45.925Z,99.90
2023-01-05T17:50:15.701Z,99.90
2023-01-05T17:52:42.681Z,99.90
2023-01-05T17:55:10.748Z,99.90
2023-01-05T17:57:38.082Z,99.90
2023-01-05T18:00:07.909Z,99.90
2023-01-05T18:02:34.723Z,99.90
2023-01-05T18:05:01.574Z,99.90
2023-01-05T18:07:30.905Z,99.90
2023-01-05T18:09:58.777Z,99.90
2023-01-05T18:12:26.950Z,99.90
2023-01-05T18:14:54.255Z,99.90
2023-01-05T18:17:21.236Z,99.90
2023-01-05T18:19:48.423Z,99.90
2023-01-05T18:22:15.350Z,99.90
2023-01-05T18:24:42.694Z,99.90
2023-01-05T18:27:10.673Z,99.90
2023-01-05T18:29:38.491Z,99.90
2023-01-05T18:32:06.159Z,99.90
2023-01-05T18:34:33.975Z,99.90
2023-01-05T18:37:06.368Z,99.90
2023-01-05T18:39:37.653Z,99.90
2023-01-05T18:42:04.587Z,99.90
2023-01-05T18:44:31.503Z,99.90
2023-01-05T18:46:58.329Z,99.90
2023-01-05T18:49:25.202Z,99.90
2023-01-05T18:51:53.024Z,99.90
2023-01-05T18:54:20.401Z,99.90
2023-01-05T18:56:47.657Z,99.90
2023-01-05T18:59:15.167Z,99.90
2023-01-05T19:01:44.735Z,99.90
2023-01-05T19:04:13.044Z,99.90
2023-01-05T19:06:40.174Z,99.90
2023-01-05T19:09:09.352Z,99.90
2023-01-05T19:11:37.752Z,99.90
2023-01-05T19:14:06.186Z,99.90
2023-01-05T19:16:35.486Z,99.90
2023-01-05T19:19:08.239Z,99.90
2023-01-05T19:21:39.496Z,99.90
2023-01-05T19:24:09.878Z,99.90
2023-01-05T19:26:36.720Z,99.90
2023-01-05T19:29:06.344Z,99.90
2023-01-05T19:31:34.478Z,99.90
2023-01-05T19:34:01.420Z,99.90
2023-01-05T19:36:32.395Z,99.90
2023-01-05T19:39:03.051Z,99.90
2023-01-05T19:41:30.586Z,99.90
2023-01-05T19:43:57.860Z,99.90
2023-01-05T19:46:27.395Z,99.90
2023-01-05T19:48:55.342Z,99.90
2023-01-05T19:51:27.511Z,99.90
2023-01-05T19:53:57.361Z,99.90
2023-01-05T19:56:25.990Z,99.90
2023-01-05T19:58:57.474Z,99.90
2023-01-05T20:01:26.275Z,99.90
2023-01-05T20:03:54.863Z,99.90
2023-01-05T20:06:26.836Z,99.90
2023-01-05T20:08:56.461Z,99.90
2023-01-05T20:11:39.543Z,99.90
2023-01-05T20:14:12.479Z,99.90
2023-01-05T20:16:40.734Z,99.90
2023-01-05T20:19:07.672Z,99.90
2023-01-05T20:21:34.881Z,99.90
2023-01-05T20:24:03.261Z,99.90
2023-01-05T20:26:31.202Z,99.90
2023-01-05T20:29:01.524Z,99.90
2023-01-05T20:31:35.491Z,99.90
2023-01-05T20:34:06.759Z,99.90
2023-01-05T20:36:34.155Z,99.90
2023-01-05T20:39:05.953Z,99.90
2023-01-05T20:41:36.292Z,99.90
2023-01-05T20:44:03.653Z,99.90
2023-01-05T20:46:43.163Z,99.90
2023-01-05T20:49:10.792Z,99.90
2023-01-05T20:51:38.397Z,99.90
2023-01-05T20:54:08.931Z,99.90
2023-01-05T20:56:40.626Z,99.90
2023-01-05T20:59:27.105Z,99.90
2023-01-05T21:01:54.588Z,99.90
2023-01-05T21:04:21.689Z,99.90
2023-01-05T21:06:49.370Z,99.90
2023-01-05T21:09:16.166Z,99.90
2023-01-05T21:11:43.333Z,99.90
2023-01-05T21:14:12.138Z,99.90
2023-01-05T21:16:42.973Z,99.90
2023-01-05T21:19:12.757Z,99.90
2023-01-05T21:21:39.595Z,99.90
2023-01-05T21:24:07.886Z,99.90
2023-01-05T21:26:35.030Z,99.90
2023-01-05T21:29:02.224Z,99.90
2023-01-05T21:31:29.036Z,99.90
2023-01-05T21:33:55.889Z,99.90
2023-01-05T21:36:28.887Z,99.90
2023-01-05T21:39:02.401Z,99.90
2023-01-05T21:41:52.611Z,99.90
2023-01-05T21:44:20.401Z,99.90
2023-01-05T21:46:47.946Z,99.90
2023-01-05T21:49:15.055Z,99.90
2023-01-05T21:52:00.393Z,99.90
2023-01-05T21:54:46.381Z,99.90
2023-01-05T21:57:13.331Z,99.90
2023-01-05T21:59:40.681Z,99.90
2023-01-05T22:02:07.566Z,99.90
2023-01-05T22:04:34.424Z,99.90
2023-01-05T22:07:01.696Z,99.90
2023-01-05T22:09:28.526Z,99.90
2023-01-05T22:11:55.415Z,99.90
2023-01-05T22:14:22.188Z,99.90
2023-01-05T22:16:49.009Z,99.90
2023-01-05T22:19:15.840Z,99.90
2023-01-05T22:21:42.848Z,99.90
2023-01-05T22:24:12.740Z,99.90
2023-01-05T22:26:39.814Z,99.90
2023-01-05T22:29:06.918Z,99.90
2023-01-05T22:31:35.584Z,99.90
2023-01-05T22:34:03.022Z,99.90
2023-01-05T22:36:30.943Z,99.90
2023-01-05T22:38:58.220Z,99.90
2023-01-05T22:41:27.884Z,99.90
2023-01-05T22:43:55.751Z,99.90
2023-01-05T22:46:25.029Z,99.90
2023-01-05T22:48:53.712Z,99.90
2023-01-05T22:51:29.824Z,99.90
2023-01-05T22:53:58.270Z,99.90
2023-01-05T22:56:27.775Z,99.90
2023-01-05T22:58:56.484Z,99.90
2023-01-05T23:01:29.461Z,99.90
2023-01-05T23:03:58.223Z,99.90
2023-01-05T23:06:25.694Z,99.90
2023-01-05T23:08:53.353Z,99.90
2023-01-05T23:11:28.665Z,99.90
2023-01-05T23:13:57.252Z,99.90
2023-01-05T23:16:25.367Z,99.90
2023-01-05T23:18:52.636Z,99.90
2023-01-05T23:21:21.311Z,99.90
2023-01-05T23:23:48.623Z,99.90
2023-01-05T23:26:16.505Z,99.90
2023-01-05T23:28:44.930Z,99.90
2023-01-05T23:31:16.451Z,99.90
2023-01-05T23:33:44.630Z,99.90
2023-01-05T23:36:13.635Z,99.90
2023-01-05T23:38:40.704Z,99.90
2023-01-05T23:41:10.060Z,99.90
2023-01-05T23:43:39.890Z,99.90
2023-01-05T23:46:09.399Z,99.90
2023-01-05T23:48:37.515Z,99.90
2023-01-05T23:51:07.571Z,99.90
2023-01-05T23:53:34.535Z,99.90
2023-01-05T23:56:06.692Z,99.90
2023-01-05T23:58:33.636Z,99.90
